sensor_id;sensor_type;location;lat;lon;timestamp;P1;durP1;ratioP1;P2;durP2;ratioP2
29938;SDS011;16799;50.844;5.304;2024-02-26T00:01:33;3.30;;;1.20;;
29938;SDS011;16799;50.844;5.304;2024-02-26T00:04:01;2.30;;;1.37;;
29938;SDS011;16799;50.844;5.304;2024-02-26T00:06:28;1.43;;;1.33;;
29938;SDS011;16799;50.844;5.304;2024-02-26T00:08:54;1.40;;;1.30;;
29938;SDS011;16799;50.844;5.304;2024-02-26T00:11:20;2.10;;;1.30;;
29938;SDS011;16799;50.844;5.304;2024-02-26T00:13:45;3.33;;;1.53;;
29938;SDS011;16799;50.844;5.304;2024-02-26T00:16:11;1.40;;;1.30;;
29938;SDS011;16799;50.844;5.304;2024-02-26T00:18:36;4.63;;;2.20;;
29938;SDS011;16799;50.844;5.304;2024-02-26T00:21:02;1.90;;;1.77;;
29938;SDS011;16799;50.844;5.304;2024-02-26T00:23:28;4.03;;;1.40;;
29938;SDS011;16799;50.844;5.304;2024-02-26T00:25:54;1.07;;;1.00;;
29938;SDS011;16799;50.844;5.304;2024-02-26T00:28:20;2.23;;;2.03;;
29938;SDS011;16799;50.844;5.304;2024-02-26T00:30:46;2.90;;;1.63;;
29938;SDS011;16799;50.844;5.304;2024-02-26T00:33:12;1.50;;;1.40;;
29938;SDS011;16799;50.844;5.304;2024-02-26T00:35:39;2.30;;;1.50;;
29938;SDS011;16799;50.844;5.304;2024-02-26T00:38:04;1.93;;;1.30;;
29938;SDS011;16799;50.844;5.304;2024-02-26T00:40:30;2.80;;;1.33;;
29938;SDS011;16799;50.844;5.304;2024-02-26T00:42:56;5.83;;;1.77;;
29938;SDS011;16799;50.844;5.304;2024-02-26T00:45:22;1.40;;;1.30;;
29938;SDS011;16799;50.844;5.304;2024-02-26T00:47:47;3.13;;;1.47;;
29938;SDS011;16799;50.844;5.304;2024-02-26T00:50:14;1.93;;;1.27;;
29938;SDS011;16799;50.844;5.304;2024-02-26T00:52:40;2.13;;;2.03;;
29938;SDS011;16799;50.844;5.304;2024-02-26T00:55:06;2.10;;;1.20;;
29938;SDS011;16799;50.844;5.304;2024-02-26T00:57:32;3.33;;;2.03;;
29938;SDS011;16799;50.844;5.304;2024-02-26T00:59:58;1.63;;;1.13;;
29938;SDS011;16799;50.844;5.304;2024-02-26T01:02:24;1.37;;;1.23;;
29938;SDS011;16799;50.844;5.304;2024-02-26T01:04:50;2.30;;;1.50;;
29938;SDS011;16799;50.844;5.304;2024-02-26T01:07:15;1.40;;;1.30;;
29938;SDS011;16799;50.844;5.304;2024-02-26T01:09:41;3.10;;;1.37;;
29938;SDS011;16799;50.844;5.304;2024-02-26T01:12:07;4.20;;;1.70;;
29938;SDS011;16799;50.844;5.304;2024-02-26T01:14:33;1.80;;;1.70;;
29938;SDS011;16799;50.844;5.304;2024-02-26T01:16:59;1.30;;;1.17;;
29938;SDS011;16799;50.844;5.304;2024-02-26T01:19:25;3.23;;;1.17;;
29938;SDS011;16799;50.844;5.304;2024-02-26T01:21:50;6.40;;;1.20;;
29938;SDS011;16799;50.844;5.304;2024-02-26T01:24:16;2.00;;;1.90;;
29938;SDS011;16799;50.844;5.304;2024-02-26T01:26:42;1.67;;;1.10;;
29938;SDS011;16799;50.844;5.304;2024-02-26T01:29:08;2.20;;;1.60;;
29938;SDS011;16799;50.844;5.304;2024-02-26T01:31:33;2.80;;;1.77;;
29938;SDS011;16799;50.844;5.304;2024-02-26T01:33:59;4.13;;;1.13;;
29938;SDS011;16799;50.844;5.304;2024-02-26T01:36:25;1.30;;;1.20;;
29938;SDS011;16799;50.844;5.304;2024-02-26T01:38:51;1.33;;;1.23;;
29938;SDS011;16799;50.844;5.304;2024-02-26T01:41:16;1.70;;;1.60;;
29938;SDS011;16799;50.844;5.304;2024-02-26T01:43:42;1.27;;;1.17;;
29938;SDS011;16799;50.844;5.304;2024-02-26T01:46:11;1.07;;;0.87;;
29938;SDS011;16799;50.844;5.304;2024-02-26T01:48:43;2.70;;;1.27;;
29938;SDS011;16799;50.844;5.304;2024-02-26T01:51:10;0.80;;;0.80;;
29938;SDS011;16799;50.844;5.304;2024-02-26T01:53:39;2.40;;;1.10;;
29938;SDS011;16799;50.844;5.304;2024-02-26T01:56:05;1.20;;;1.07;;
29938;SDS011;16799;50.844;5.304;2024-02-26T01:58:31;1.10;;;1.00;;
29938;SDS011;16799;50.844;5.304;2024-02-26T02:00:59;1.83;;;1.10;;
29938;SDS011;16799;50.844;5.304;2024-02-26T02:03:26;1.50;;;1.03;;
29938;SDS011;16799;50.844;5.304;2024-02-26T02:05:52;1.20;;;1.00;;
29938;SDS011;16799;50.844;5.304;2024-02-26T02:08:17;1.30;;;1.20;;
29938;SDS011;16799;50.844;5.304;2024-02-26T02:10:44;1.13;;;1.00;;
29938;SDS011;16799;50.844;5.304;2024-02-26T02:13:12;1.20;;;1.10;;
29938;SDS011;16799;50.844;5.304;2024-02-26T02:15:38;2.50;;;1.23;;
29938;SDS011;16799;50.844;5.304;2024-02-26T02:18:04;1.43;;;1.00;;
29938;SDS011;16799;50.844;5.304;2024-02-26T02:20:34;4.20;;;1.27;;
29938;SDS011;16799;50.844;5.304;2024-02-26T02:23:00;8.47;;;1.10;;
29938;SDS011;16799;50.844;5.304;2024-02-26T02:25:27;1.20;;;1.00;;
29938;SDS011;16799;50.844;5.304;2024-02-26T02:27:53;4.00;;;1.00;;
29938;SDS011;16799;50.844;5.304;2024-02-26T02:30:20;1.63;;;1.30;;
29938;SDS011;16799;50.844;5.304;2024-02-26T02:32:49;0.87;;;0.87;;
29938;SDS011;16799;50.844;5.304;2024-02-26T02:35:14;1.67;;;1.17;;
29938;SDS011;16799;50.844;5.304;2024-02-26T02:37:40;1.40;;;1.30;;
29938;SDS011;16799;50.844;5.304;2024-02-26T02:40:06;1.90;;;1.40;;
29938;SDS011;16799;50.844;5.304;2024-02-26T02:42:32;5.30;;;2.03;;
29938;SDS011;16799;50.844;5.304;2024-02-26T02:44:58;1.70;;;1.60;;
29938;SDS011;16799;50.844;5.304;2024-02-26T02:47:24;1.33;;;0.90;;
29938;SDS011;16799;50.844;5.304;2024-02-26T02:49:49;1.13;;;0.90;;
29938;SDS011;16799;50.844;5.304;2024-02-26T02:52:15;5.43;;;1.50;;
29938;SDS011;16799;50.844;5.304;2024-02-26T02:54:41;2.50;;;1.40;;
29938;SDS011;16799;50.844;5.304;2024-02-26T02:57:10;3.23;;;1.33;;
29938;SDS011;16799;50.844;5.304;2024-02-26T02:59:36;4.77;;;1.07;;
29938;SDS011;16799;50.844;5.304;2024-02-26T03:02:02;1.97;;;1.33;;
29938;SDS011;16799;50.844;5.304;2024-02-26T03:04:28;5.37;;;1.40;;
29938;SDS011;16799;50.844;5.304;2024-02-26T03:06:54;4.00;;;1.53;;
29938;SDS011;16799;50.844;5.304;2024-02-26T03:09:20;2.40;;;1.20;;
29938;SDS011;16799;50.844;5.304;2024-02-26T03:11:45;1.93;;;1.33;;
29938;SDS011;16799;50.844;5.304;2024-02-26T03:14:11;1.37;;;1.27;;
29938;SDS011;16799;50.844;5.304;2024-02-26T03:16:37;3.93;;;1.90;;
29938;SDS011;16799;50.844;5.304;2024-02-26T03:19:03;2.60;;;1.87;;
29938;SDS011;16799;50.844;5.304;2024-02-26T03:21:28;2.40;;;2.30;;
29938;SDS011;16799;50.844;5.304;2024-02-26T03:23:54;2.03;;;1.57;;
29938;SDS011;16799;50.844;5.304;2024-02-26T03:26:20;4.30;;;2.33;;
29938;SDS011;16799;50.844;5.304;2024-02-26T03:28:46;1.70;;;1.43;;
29938;SDS011;16799;50.844;5.304;2024-02-26T03:31:12;2.23;;;2.03;;
29938;SDS011;16799;50.844;5.304;2024-02-26T03:33:38;1.87;;;1.67;;
29938;SDS011;16799;50.844;5.304;2024-02-26T03:36:04;1.70;;;1.60;;
29938;SDS011;16799;50.844;5.304;2024-02-26T03:38:30;1.70;;;1.60;;
29938;SDS011;16799;50.844;5.304;2024-02-26T03:40:56;2.57;;;2.23;;
29938;SDS011;16799;50.844;5.304;2024-02-26T03:43:21;1.87;;;1.77;;
29938;SDS011;16799;50.844;5.304;2024-02-26T03:45:47;2.13;;;2.03;;
29938;SDS011;16799;50.844;5.304;2024-02-26T03:48:13;1.77;;;1.67;;
29938;SDS011;16799;50.844;5.304;2024-02-26T03:50:38;1.90;;;1.80;;
29938;SDS011;16799;50.844;5.304;2024-02-26T03:53:04;3.67;;;2.30;;
29938;SDS011;16799;50.844;5.304;2024-02-26T03:55:30;2.30;;;2.03;;
29938;SDS011;16799;50.844;5.304;2024-02-26T03:57:55;1.90;;;1.80;;
29938;SDS011;16799;50.844;5.304;2024-02-26T04:00:21;2.40;;;2.20;;
29938;SDS011;16799;50.844;5.304;2024-02-26T04:02:47;2.10;;;1.90;;
29938;SDS011;16799;50.844;5.304;2024-02-26T04:05:13;3.13;;;2.37;;
29938;SDS011;16799;50.844;5.304;2024-02-26T04:07:39;3.70;;;1.50;;
29938;SDS011;16799;50.844;5.304;2024-02-26T04:10:09;2.30;;;2.20;;
29938;SDS011;16799;50.844;5.304;2024-02-26T04:12:35;2.37;;;2.23;;
29938;SDS011;16799;50.844;5.304;2024-02-26T04:15:03;2.83;;;2.17;;
29938;SDS011;16799;50.844;5.304;2024-02-26T04:17:29;4.17;;;1.90;;
29938;SDS011;16799;50.844;5.304;2024-02-26T04:19:55;2.20;;;2.10;;
29938;SDS011;16799;50.844;5.304;2024-02-26T04:22:21;2.43;;;1.83;;
29938;SDS011;16799;50.844;5.304;2024-02-26T04:24:46;5.80;;;2.73;;
29938;SDS011;16799;50.844;5.304;2024-02-26T04:27:12;5.70;;;3.07;;
29938;SDS011;16799;50.844;5.304;2024-02-26T04:29:38;2.13;;;2.00;;
29938;SDS011;16799;50.844;5.304;2024-02-26T04:32:03;3.37;;;3.17;;
29938;SDS011;16799;50.844;5.304;2024-02-26T04:34:29;2.77;;;2.50;;
29938;SDS011;16799;50.844;5.304;2024-02-26T04:36:55;3.30;;;2.90;;
29938;SDS011;16799;50.844;5.304;2024-02-26T04:39:20;3.80;;;2.83;;
29938;SDS011;16799;50.844;5.304;2024-02-26T04:41:46;2.30;;;2.10;;
29938;SDS011;16799;50.844;5.304;2024-02-26T04:44:12;2.40;;;2.30;;
29938;SDS011;16799;50.844;5.304;2024-02-26T04:46:37;3.50;;;3.30;;
29938;SDS011;16799;50.844;5.304;2024-02-26T04:49:03;9.30;;;3.97;;
29938;SDS011;16799;50.844;5.304;2024-02-26T04:51:29;3.43;;;3.23;;
29938;SDS011;16799;50.844;5.304;2024-02-26T04:53:54;7.53;;;3.37;;
29938;SDS011;16799;50.844;5.304;2024-02-26T04:56:23;3.57;;;3.37;;
29938;SDS011;16799;50.844;5.304;2024-02-26T04:58:49;4.20;;;3.53;;
29938;SDS011;16799;50.844;5.304;2024-02-26T05:01:15;6.90;;;3.50;;
29938;SDS011;16799;50.844;5.304;2024-02-26T05:03:42;5.60;;;3.77;;
29938;SDS011;16799;50.844;5.304;2024-02-26T05:06:08;3.00;;;2.80;;
29938;SDS011;16799;50.844;5.304;2024-02-26T05:08:34;4.87;;;4.43;;
29938;SDS011;16799;50.844;5.304;2024-02-26T05:11:01;3.53;;;3.27;;
29938;SDS011;16799;50.844;5.304;2024-02-26T05:13:31;8.90;;;4.00;;
29938;SDS011;16799;50.844;5.304;2024-02-26T05:15:56;4.00;;;3.70;;
29938;SDS011;16799;50.844;5.304;2024-02-26T05:18:22;4.17;;;3.87;;
29938;SDS011;16799;50.844;5.304;2024-02-26T05:20:48;10.80;;;4.33;;
29938;SDS011;16799;50.844;5.304;2024-02-26T05:23:13;3.97;;;3.67;;
29938;SDS011;16799;50.844;5.304;2024-02-26T05:25:39;5.37;;;4.00;;
29938;SDS011;16799;50.844;5.304;2024-02-26T05:28:06;5.63;;;4.60;;
29938;SDS011;16799;50.844;5.304;2024-02-26T05:30:32;4.60;;;4.10;;
29938;SDS011;16799;50.844;5.304;2024-02-26T05:32:57;4.77;;;4.37;;
29938;SDS011;16799;50.844;5.304;2024-02-26T05:35:24;5.70;;;5.40;;
29938;SDS011;16799;50.844;5.304;2024-02-26T05:37:50;5.47;;;5.07;;
29938;SDS011;16799;50.844;5.304;2024-02-26T05:40:16;5.07;;;4.77;;
29938;SDS011;16799;50.844;5.304;2024-02-26T05:42:42;4.80;;;4.50;;
29938;SDS011;16799;50.844;5.304;2024-02-26T05:45:10;5.20;;;4.90;;
29938;SDS011;16799;50.844;5.304;2024-02-26T05:47:35;5.07;;;4.30;;
29938;SDS011;16799;50.844;5.304;2024-02-26T05:50:01;9.70;;;5.17;;
29938;SDS011;16799;50.844;5.304;2024-02-26T05:52:27;8.90;;;5.40;;
29938;SDS011;16799;50.844;5.304;2024-02-26T05:54:54;4.90;;;4.60;;
29938;SDS011;16799;50.844;5.304;2024-02-26T05:57:20;6.60;;;5.30;;
29938;SDS011;16799;50.844;5.304;2024-02-26T05:59:45;4.73;;;4.37;;
29938;SDS011;16799;50.844;5.304;2024-02-26T06:02:11;4.70;;;4.30;;
29938;SDS011;16799;50.844;5.304;2024-02-26T06:04:37;6.47;;;4.50;;
29938;SDS011;16799;50.844;5.304;2024-02-26T06:07:02;5.10;;;4.80;;
29938;SDS011;16799;50.844;5.304;2024-02-26T06:09:28;4.27;;;3.67;;
29938;SDS011;16799;50.844;5.304;2024-02-26T06:11:54;4.97;;;4.67;;
29938;SDS011;16799;50.844;5.304;2024-02-26T06:14:19;4.80;;;4.50;;
29938;SDS011;16799;50.844;5.304;2024-02-26T06:16:45;6.77;;;6.27;;
29938;SDS011;16799;50.844;5.304;2024-02-26T06:19:11;5.23;;;4.83;;
29938;SDS011;16799;50.844;5.304;2024-02-26T06:21:37;6.83;;;6.33;;
29938;SDS011;16799;50.844;5.304;2024-02-26T06:24:03;7.93;;;6.27;;
29938;SDS011;16799;50.844;5.304;2024-02-26T06:26:29;7.50;;;6.50;;
29938;SDS011;16799;50.844;5.304;2024-02-26T06:28:54;7.37;;;6.60;;
29938;SDS011;16799;50.844;5.304;2024-02-26T06:31:23;7.80;;;7.20;;
29938;SDS011;16799;50.844;5.304;2024-02-26T06:33:49;7.47;;;6.80;;
29938;SDS011;16799;50.844;5.304;2024-02-26T06:36:15;6.67;;;6.17;;
29938;SDS011;16799;50.844;5.304;2024-02-26T06:38:41;6.60;;;6.10;;
29938;SDS011;16799;50.844;5.304;2024-02-26T06:41:07;6.57;;;6.07;;
29938;SDS011;16799;50.844;5.304;2024-02-26T06:43:32;7.53;;;6.90;;
29938;SDS011;16799;50.844;5.304;2024-02-26T06:45:58;7.60;;;6.60;;
29938;SDS011;16799;50.844;5.304;2024-02-26T06:48:24;8.73;;;7.90;;
29938;SDS011;16799;50.844;5.304;2024-02-26T06:50:49;7.53;;;6.83;;
29938;SDS011;16799;50.844;5.304;2024-02-26T06:53:15;7.50;;;6.90;;
29938;SDS011;16799;50.844;5.304;2024-02-26T06:55:41;7.77;;;7.23;;
29938;SDS011;16799;50.844;5.304;2024-02-26T06:58:07;7.93;;;7.20;;
29938;SDS011;16799;50.844;5.304;2024-02-26T07:00:33;8.23;;;7.40;;
29938;SDS011;16799;50.844;5.304;2024-02-26T07:02:59;8.27;;;7.47;;
29938;SDS011;16799;50.844;5.304;2024-02-26T07:05:25;12.27;;;7.57;;
29938;SDS011;16799;50.844;5.304;2024-02-26T07:07:52;7.93;;;7.00;;
29938;SDS011;16799;50.844;5.304;2024-02-26T07:10:18;8.47;;;7.87;;
29938;SDS011;16799;50.844;5.304;2024-02-26T07:12:43;11.10;;;7.67;;
29938;SDS011;16799;50.844;5.304;2024-02-26T07:15:09;10.67;;;8.23;;
29938;SDS011;16799;50.844;5.304;2024-02-26T07:17:35;12.70;;;7.67;;
29938;SDS011;16799;50.844;5.304;2024-02-26T07:20:01;8.57;;;7.87;;
29938;SDS011;16799;50.844;5.304;2024-02-26T07:22:29;10.90;;;7.73;;
29938;SDS011;16799;50.844;5.304;2024-02-26T07:24:55;9.10;;;7.63;;
29938;SDS011;16799;50.844;5.304;2024-02-26T07:27:21;9.87;;;9.00;;
29938;SDS011;16799;50.844;5.304;2024-02-26T07:29:47;8.67;;;7.83;;
29938;SDS011;16799;50.844;5.304;2024-02-26T07:32:12;10.23;;;8.87;;
29938;SDS011;16799;50.844;5.304;2024-02-26T07:34:39;7.17;;;6.47;;
29938;SDS011;16799;50.844;5.304;2024-02-26T07:37:07;9.77;;;8.83;;
29938;SDS011;16799;50.844;5.304;2024-02-26T07:39:33;10.40;;;8.90;;
29938;SDS011;16799;50.844;5.304;2024-02-26T07:41:59;11.73;;;9.43;;
29938;SDS011;16799;50.844;5.304;2024-02-26T07:44:24;12.77;;;9.97;;
29938;SDS011;16799;50.844;5.304;2024-02-26T07:46:50;13.10;;;10.30;;
29938;SDS011;16799;50.844;5.304;2024-02-26T07:49:16;12.13;;;9.00;;
29938;SDS011;16799;50.844;5.304;2024-02-26T07:51:41;15.93;;;8.63;;
29938;SDS011;16799;50.844;5.304;2024-02-26T07:54:07;12.47;;;10.30;;
29938;SDS011;16799;50.844;5.304;2024-02-26T07:56:33;13.47;;;9.23;;
29938;SDS011;16799;50.844;5.304;2024-02-26T07:58:58;11.40;;;9.00;;
29938;SDS011;16799;50.844;5.304;2024-02-26T08:01:24;15.30;;;10.20;;
29938;SDS011;16799;50.844;5.304;2024-02-26T08:03:51;11.40;;;9.87;;
29938;SDS011;16799;50.844;5.304;2024-02-26T08:06:20;9.77;;;8.00;;
29938;SDS011;16799;50.844;5.304;2024-02-26T08:08:46;11.63;;;10.43;;
29938;SDS011;16799;50.844;5.304;2024-02-26T08:11:14;12.40;;;10.00;;
29938;SDS011;16799;50.844;5.304;2024-02-26T08:13:41;9.83;;;8.00;;
29938;SDS011;16799;50.844;5.304;2024-02-26T08:16:06;11.23;;;8.67;;
29938;SDS011;16799;50.844;5.304;2024-02-26T08:18:32;27.93;;;12.47;;
29938;SDS011;16799;50.844;5.304;2024-02-26T08:20:58;18.13;;;10.50;;
29938;SDS011;16799;50.844;5.304;2024-02-26T08:23:23;11.80;;;10.60;;
29938;SDS011;16799;50.844;5.304;2024-02-26T08:25:50;9.80;;;8.80;;
29938;SDS011;16799;50.844;5.304;2024-02-26T08:28:15;12.27;;;9.90;;
29938;SDS011;16799;50.844;5.304;2024-02-26T08:30:42;12.93;;;10.70;;
29938;SDS011;16799;50.844;5.304;2024-02-26T08:33:09;10.80;;;9.80;;
29938;SDS011;16799;50.844;5.304;2024-02-26T08:35:35;13.67;;;9.00;;
29938;SDS011;16799;50.844;5.304;2024-02-26T08:38:01;10.47;;;8.77;;
29938;SDS011;16799;50.844;5.304;2024-02-26T08:40:27;12.70;;;11.40;;
29938;SDS011;16799;50.844;5.304;2024-02-26T08:42:53;11.80;;;10.60;;
29938;SDS011;16799;50.844;5.304;2024-02-26T08:45:20;10.33;;;9.23;;
29938;SDS011;16799;50.844;5.304;2024-02-26T08:47:46;11.33;;;10.13;;
29938;SDS011;16799;50.844;5.304;2024-02-26T08:50:11;12.17;;;10.97;;
29938;SDS011;16799;50.844;5.304;2024-02-26T08:52:38;17.73;;;10.07;;
29938;SDS011;16799;50.844;5.304;2024-02-26T08:55:03;15.47;;;9.23;;
29938;SDS011;16799;50.844;5.304;2024-02-26T08:57:31;11.90;;;10.80;;
29938;SDS011;16799;50.844;5.304;2024-02-26T08:59:59;11.57;;;10.43;;
29938;SDS011;16799;50.844;5.304;2024-02-26T09:02:25;12.20;;;9.67;;
29938;SDS011;16799;50.844;5.304;2024-02-26T09:04:51;12.00;;;10.40;;
29938;SDS011;16799;50.844;5.304;2024-02-26T09:07:19;12.20;;;10.63;;
29938;SDS011;16799;50.844;5.304;2024-02-26T09:09:44;15.43;;;11.00;;
29938;SDS011;16799;50.844;5.304;2024-02-26T09:12:10;12.53;;;10.77;;
29938;SDS011;16799;50.844;5.304;2024-02-26T09:14:36;10.73;;;8.90;;
29938;SDS011;16799;50.844;5.304;2024-02-26T09:17:02;11.33;;;9.50;;
29938;SDS011;16799;50.844;5.304;2024-02-26T09:19:27;9.90;;;9.00;;
29938;SDS011;16799;50.844;5.304;2024-02-26T09:21:53;10.43;;;9.43;;
29938;SDS011;16799;50.844;5.304;2024-02-26T09:24:22;10.07;;;9.10;;
29938;SDS011;16799;50.844;5.304;2024-02-26T09:26:48;11.37;;;10.27;;
29938;SDS011;16799;50.844;5.304;2024-02-26T09:29:14;10.87;;;9.90;;
29938;SDS011;16799;50.844;5.304;2024-02-26T09:31:39;11.10;;;9.90;;
29938;SDS011;16799;50.844;5.304;2024-02-26T09:34:06;9.50;;;8.70;;
29938;SDS011;16799;50.844;5.304;2024-02-26T09:36:33;10.03;;;9.10;;
29938;SDS011;16799;50.844;5.304;2024-02-26T09:38:59;9.63;;;8.97;;
29938;SDS011;16799;50.844;5.304;2024-02-26T09:41:24;11.50;;;10.53;;
29938;SDS011;16799;50.844;5.304;2024-02-26T09:43:56;10.33;;;9.23;;
29938;SDS011;16799;50.844;5.304;2024-02-26T09:46:25;8.03;;;7.37;;
29938;SDS011;16799;50.844;5.304;2024-02-26T09:48:51;9.67;;;8.97;;
29938;SDS011;16799;50.844;5.304;2024-02-26T09:51:18;9.97;;;8.23;;
29938;SDS011;16799;50.844;5.304;2024-02-26T09:53:44;7.50;;;6.90;;
29938;SDS011;16799;50.844;5.304;2024-02-26T09:56:12;8.23;;;7.60;;
29938;SDS011;16799;50.844;5.304;2024-02-26T09:58:39;10.03;;;8.03;;
29938;SDS011;16799;50.844;5.304;2024-02-26T10:01:08;7.10;;;6.60;;
29938;SDS011;16799;50.844;5.304;2024-02-26T10:03:41;8.50;;;7.40;;
29938;SDS011;16799;50.844;5.304;2024-02-26T10:06:09;5.57;;;5.27;;
29938;SDS011;16799;50.844;5.304;2024-02-26T10:08:35;5.53;;;5.00;;
29938;SDS011;16799;50.844;5.304;2024-02-26T10:11:03;5.53;;;5.03;;
29938;SDS011;16799;50.844;5.304;2024-02-26T10:13:30;5.37;;;5.07;;
29938;SDS011;16799;50.844;5.304;2024-02-26T10:15:55;4.63;;;4.33;;
29938;SDS011;16799;50.844;5.304;2024-02-26T10:18:24;5.33;;;4.70;;
29938;SDS011;16799;50.844;5.304;2024-02-26T10:21:01;7.10;;;6.40;;
29938;SDS011;16799;50.844;5.304;2024-02-26T10:23:27;6.20;;;4.10;;
29938;SDS011;16799;50.844;5.304;2024-02-26T10:25:56;6.30;;;4.50;;
29938;SDS011;16799;50.844;5.304;2024-02-26T10:28:22;4.83;;;4.40;;
29938;SDS011;16799;50.844;5.304;2024-02-26T10:30:48;5.33;;;4.57;;
29938;SDS011;16799;50.844;5.304;2024-02-26T10:33:14;5.83;;;5.27;;
29938;SDS011;16799;50.844;5.304;2024-02-26T10:35:40;4.43;;;4.17;;
29938;SDS011;16799;50.844;5.304;2024-02-26T10:38:11;4.77;;;4.47;;
29938;SDS011;16799;50.844;5.304;2024-02-26T10:40:37;6.20;;;5.70;;
29938;SDS011;16799;50.844;5.304;2024-02-26T10:43:03;5.33;;;4.93;;
29938;SDS011;16799;50.844;5.304;2024-02-26T10:45:28;5.10;;;4.40;;
29938;SDS011;16799;50.844;5.304;2024-02-26T10:47:54;5.43;;;4.93;;
29938;SDS011;16799;50.844;5.304;2024-02-26T10:50:20;4.77;;;4.43;;
29938;SDS011;16799;50.844;5.304;2024-02-26T10:52:45;5.30;;;4.73;;
29938;SDS011;16799;50.844;5.304;2024-02-26T10:55:17;4.80;;;4.50;;
29938;SDS011;16799;50.844;5.304;2024-02-26T10:57:45;5.57;;;5.23;;
29938;SDS011;16799;50.844;5.304;2024-02-26T11:00:14;4.20;;;3.90;;
29938;SDS011;16799;50.844;5.304;2024-02-26T11:02:41;4.90;;;3.97;;
29938;SDS011;16799;50.844;5.304;2024-02-26T11:05:09;4.87;;;4.57;;
29938;SDS011;16799;50.844;5.304;2024-02-26T11:07:37;4.17;;;3.97;;
29938;SDS011;16799;50.844;5.304;2024-02-26T11:10:04;4.70;;;4.27;;
29938;SDS011;16799;50.844;5.304;2024-02-26T11:12:31;5.43;;;4.63;;
29938;SDS011;16799;50.844;5.304;2024-02-26T11:15:00;6.50;;;4.90;;
29938;SDS011;16799;50.844;5.304;2024-02-26T11:17:27;6.60;;;4.63;;
29938;SDS011;16799;50.844;5.304;2024-02-26T11:19:56;5.63;;;5.23;;
29938;SDS011;16799;50.844;5.304;2024-02-26T11:22:24;7.20;;;4.63;;
29938;SDS011;16799;50.844;5.304;2024-02-26T11:24:51;5.77;;;4.40;;
29938;SDS011;16799;50.844;5.304;2024-02-26T11:27:27;4.93;;;4.47;;
29938;SDS011;16799;50.844;5.304;2024-02-26T11:30:09;3.53;;;3.30;;
29938;SDS011;16799;50.844;5.304;2024-02-26T11:32:36;4.90;;;4.60;;
29938;SDS011;16799;50.844;5.304;2024-02-26T11:35:02;4.33;;;4.03;;
29938;SDS011;16799;50.844;5.304;2024-02-26T11:37:30;5.27;;;4.93;;
29938;SDS011;16799;50.844;5.304;2024-02-26T11:39:58;3.90;;;3.60;;
29938;SDS011;16799;50.844;5.304;2024-02-26T11:42:25;3.53;;;3.17;;
29938;SDS011;16799;50.844;5.304;2024-02-26T11:44:51;7.23;;;3.27;;
29938;SDS011;16799;50.844;5.304;2024-02-26T11:49:43;3.97;;;3.67;;
29938;SDS011;16799;50.844;5.304;2024-02-26T11:52:09;3.37;;;3.17;;
29938;SDS011;16799;50.844;5.304;2024-02-26T11:54:39;2.57;;;2.47;;
29938;SDS011;16799;50.844;5.304;2024-02-26T11:57:20;4.47;;;2.57;;
29938;SDS011;16799;50.844;5.304;2024-02-26T12:00:14;2.70;;;2.50;;
29938;SDS011;16799;50.844;5.304;2024-02-26T12:02:49;3.27;;;2.97;;
29938;SDS011;16799;50.844;5.304;2024-02-26T12:05:30;2.60;;;2.40;;
29938;SDS011;16799;50.844;5.304;2024-02-26T12:08:01;3.90;;;2.90;;
29938;SDS011;16799;50.844;5.304;2024-02-26T12:10:33;2.60;;;2.40;;
29938;SDS011;16799;50.844;5.304;2024-02-26T12:15:37;3.00;;;2.80;;
29938;SDS011;16799;50.844;5.304;2024-02-26T12:18:04;3.40;;;3.20;;
29938;SDS011;16799;50.844;5.304;2024-02-26T12:20:32;3.80;;;3.60;;
29938;SDS011;16799;50.844;5.304;2024-02-26T12:22:59;6.03;;;5.43;;
29938;SDS011;16799;50.844;5.304;2024-02-26T12:25:26;4.47;;;3.97;;
29938;SDS011;16799;50.844;5.304;2024-02-26T12:27:53;3.87;;;3.40;;
29938;SDS011;16799;50.844;5.304;2024-02-26T12:30:19;3.17;;;2.87;;
29938;SDS011;16799;50.844;5.304;2024-02-26T12:32:48;4.10;;;3.50;;
29938;SDS011;16799;50.844;5.304;2024-02-26T12:35:15;3.27;;;3.07;;
29938;SDS011;16799;50.844;5.304;2024-02-26T12:37:41;3.00;;;2.70;;
29938;SDS011;16799;50.844;5.304;2024-02-26T12:40:11;3.20;;;3.00;;
29938;SDS011;16799;50.844;5.304;2024-02-26T12:42:38;2.77;;;2.23;;
29938;SDS011;16799;50.844;5.304;2024-02-26T12:45:05;2.27;;;2.10;;
29938;SDS011;16799;50.844;5.304;2024-02-26T12:47:35;2.70;;;2.50;;
29938;SDS011;16799;50.844;5.304;2024-02-26T12:50:04;2.40;;;2.20;;
29938;SDS011;16799;50.844;5.304;2024-02-26T12:52:32;2.90;;;2.50;;
29938;SDS011;16799;50.844;5.304;2024-02-26T12:54:59;2.70;;;2.50;;
29938;SDS011;16799;50.844;5.304;2024-02-26T12:57:33;3.60;;;2.70;;
29938;SDS011;16799;50.844;5.304;2024-02-26T13:00:01;3.20;;;3.00;;
29938;SDS011;16799;50.844;5.304;2024-02-26T13:02:29;3.80;;;3.60;;
29938;SDS011;16799;50.844;5.304;2024-02-26T13:04:56;5.17;;;4.77;;
29938;SDS011;16799;50.844;5.304;2024-02-26T13:07:23;4.03;;;3.73;;
29938;SDS011;16799;50.844;5.304;2024-02-26T13:09:48;5.10;;;4.73;;
29938;SDS011;16799;50.844;5.304;2024-02-26T13:12:17;6.37;;;5.47;;
29938;SDS011;16799;50.844;5.304;2024-02-26T13:14:43;4.50;;;4.30;;
29938;SDS011;16799;50.844;5.304;2024-02-26T13:17:08;5.50;;;4.57;;
29938;SDS011;16799;50.844;5.304;2024-02-26T13:19:34;5.20;;;4.90;;
29938;SDS011;16799;50.844;5.304;2024-02-26T13:22:06;9.00;;;6.23;;
29938;SDS011;16799;50.844;5.304;2024-02-26T13:24:35;5.30;;;5.00;;
29938;SDS011;16799;50.844;5.304;2024-02-26T13:27:02;12.43;;;6.50;;
29938;SDS011;16799;50.844;5.304;2024-02-26T13:29:31;5.13;;;4.80;;
29938;SDS011;16799;50.844;5.304;2024-02-26T13:31:57;5.50;;;5.00;;
29938;SDS011;16799;50.844;5.304;2024-02-26T13:34:26;5.47;;;5.07;;
29938;SDS011;16799;50.844;5.304;2024-02-26T13:36:54;8.67;;;6.47;;
29938;SDS011;16799;50.844;5.304;2024-02-26T13:39:26;6.73;;;6.33;;
29938;SDS011;16799;50.844;5.304;2024-02-26T13:41:53;8.00;;;7.50;;
29938;SDS011;16799;50.844;5.304;2024-02-26T13:44:19;7.80;;;7.03;;
29938;SDS011;16799;50.844;5.304;2024-02-26T13:46:46;7.43;;;7.03;;
29938;SDS011;16799;50.844;5.304;2024-02-26T13:49:12;8.90;;;8.30;;
29938;SDS011;16799;50.844;5.304;2024-02-26T13:51:38;7.87;;;7.27;;
29938;SDS011;16799;50.844;5.304;2024-02-26T13:54:04;8.63;;;7.73;;
29938;SDS011;16799;50.844;5.304;2024-02-26T13:56:30;11.43;;;9.10;;
29938;SDS011;16799;50.844;5.304;2024-02-26T13:58:57;7.93;;;7.40;;
29938;SDS011;16799;50.844;5.304;2024-02-26T14:01:23;13.83;;;10.00;;
29938;SDS011;16799;50.844;5.304;2024-02-26T14:03:49;9.23;;;8.47;;
29938;SDS011;16799;50.844;5.304;2024-02-26T14:06:15;11.50;;;10.43;;
29938;SDS011;16799;50.844;5.304;2024-02-26T14:08:40;10.43;;;9.50;;
29938;SDS011;16799;50.844;5.304;2024-02-26T14:11:06;14.07;;;11.97;;
29938;SDS011;16799;50.844;5.304;2024-02-26T14:13:32;12.60;;;11.40;;
29938;SDS011;16799;50.844;5.304;2024-02-26T14:15:57;12.80;;;11.70;;
29938;SDS011;16799;50.844;5.304;2024-02-26T14:18:23;12.53;;;11.30;;
29938;SDS011;16799;50.844;5.304;2024-02-26T14:20:49;13.33;;;12.00;;
29938;SDS011;16799;50.844;5.304;2024-02-26T14:23:15;14.67;;;13.27;;
29938;SDS011;16799;50.844;5.304;2024-02-26T14:25:40;15.23;;;11.43;;
29938;SDS011;16799;50.844;5.304;2024-02-26T14:28:06;15.60;;;13.50;;
29938;SDS011;16799;50.844;5.304;2024-02-26T14:30:32;16.23;;;14.33;;
29938;SDS011;16799;50.844;5.304;2024-02-26T14:32:57;17.93;;;13.57;;
29938;SDS011;16799;50.844;5.304;2024-02-26T14:35:23;16.47;;;14.77;;
29938;SDS011;16799;50.844;5.304;2024-02-26T14:37:50;16.43;;;14.53;;
29938;SDS011;16799;50.844;5.304;2024-02-26T14:40:17;22.10;;;15.90;;
29938;SDS011;16799;50.844;5.304;2024-02-26T14:42:43;21.60;;;15.10;;
29938;SDS011;16799;50.844;5.304;2024-02-26T14:45:09;17.23;;;14.17;;